Time;durP1;ratioP1;P1;durP2;ratioP2;P2;SDS_P1;SDS_P2;PMS_P1;PMS_P2;Temp;Humidity;BMP_temperature;BMP_pressure;BME280_temperature;BME280_humidity;BME280_pressure;Samples;Min_cycle;Max_cycle;Signal;HPM_P1;HPM_P2
2023/09/12 00:00:00;;;;;;;23.00;15.43;;;22.30;99.90;;;;;;5085884;28;20175;-70
2023/09/12 00:02:28;;;;;;;11.93;8.70;;;23.30;99.90;;;;;;5085240;28;20208;-70
2023/09/12 00:04:56;;;;;;;19.87;8.70;;;23.70;99.90;;;;;;5071349;28;20183;-70
2023/09/12 00:07:24;;;;;;;13.17;8.87;;;23.40;99.90;;;;;;5071448;28;20252;-69
2023/09/12 00:09:51;;;;;;;13.10;9.50;;;22.80;99.90;;;;;;5070122;28;20188;-70
2023/09/12 00:12:26;;;;;;;12.57;6.07;;;23.10;99.90;;;;;;5071060;28;20219;-70
2023/09/12 00:14:54;;;;;;;15.33;8.80;;;23.30;99.90;;;;;;5071343;28;20188;-69
2023/09/12 00:17:22;;;;;;;13.00;8.57;;;22.50;99.90;;;;;;5071829;28;20183;-69
2023/09/12 00:19:50;;;;;;;15.03;9.93;;;22.20;99.90;;;;;;5071512;28;20249;-69
2023/09/12 00:22:17;;;;;;;18.83;8.97;;;22.50;99.90;;;;;;5070780;28;20227;-68
2023/09/12 00:24:45;;;;;;;15.33;8.93;;;22.40;99.90;;;;;;5071443;28;20175;-70
2023/09/12 00:27:13;;;;;;;17.07;9.97;;;22.10;99.90;;;;;;5070260;28;20559;-69
2023/09/12 00:29:40;;;;;;;16.93;10.53;;;22.40;99.90;;;;;;5071170;28;20202;-70
2023/09/12 00:32:08;;;;;;;12.27;9.00;;;22.90;99.90;;;;;;5069623;28;20274;-69
2023/09/12 00:34:36;;;;;;;16.87;10.00;;;22.70;99.90;;;;;;5071540;28;20183;-68
2023/09/12 00:37:04;;;;;;;17.77;8.93;;;22.70;99.90;;;;;;5071106;28;20183;-68
2023/09/12 00:39:32;;;;;;;13.57;9.23;;;21.50;99.90;;;;;;5074550;28;20179;-69
2023/09/12 00:42:00;;;;;;;16.43;10.90;;;21.20;99.90;;;;;;5079359;28;20211;-68
2023/09/12 00:44:27;;;;;;;11.33;8.53;;;21.30;99.90;;;;;;5075038;28;20693;-68
2023/09/12 00:46:57;;;;;;;19.03;9.70;;;21.60;99.90;;;;;;5075273;28;20188;-69
2023/09/12 00:49:26;;;;;;;11.70;9.17;;;22.30;99.90;;;;;;5075397;28;20225;-69
2023/09/12 00:51:54;;;;;;;13.60;9.13;;;22.70;99.90;;;;;;5074395;28;20965;-69
2023/09/12 00:54:22;;;;;;;17.30;9.63;;;23.00;99.90;;;;;;5075423;28;20176;-68
2023/09/12 00:56:51;;;;;;;12.73;9.00;;;22.70;99.90;;;;;;5075112;28;20233;-70
2023/09/12 00:59:20;;;;;;;14.47;8.80;;;22.20;99.90;;;;;;5073487;28;20658;-72
2023/09/12 01:01:48;;;;;;;13.80;8.77;;;22.50;99.90;;;;;;5074626;28;20203;-69
2023/09/12 01:04:16;;;;;;;16.97;9.30;;;22.50;99.90;;;;;;5075067;28;20192;-68
2023/09/12 01:06:45;;;;;;;17.07;9.10;;;23.00;99.90;;;;;;5074244;28;20223;-69
2023/09/12 01:09:14;;;;;;;12.00;8.77;;;23.20;99.90;;;;;;5073852;28;20190;-70
2023/09/12 01:11:41;;;;;;;14.50;10.20;;;22.70;99.90;;;;;;5074446;28;20187;-69
2023/09/12 01:14:09;;;;;;;14.83;8.77;;;22.60;99.90;;;;;;5055088;28;20202;-69
2023/09/12 01:16:37;;;;;;;17.40;9.53;;;22.30;99.90;;;;;;5072559;28;20191;-69
2023/09/12 01:19:07;;;;;;;13.10;9.00;;;22.50;99.90;;;;;;5074571;28;20187;-69
2023/09/12 01:21:41;;;;;;;16.83;9.57;;;22.70;99.90;;;;;;5073169;28;20257;-68
2023/09/12 01:24:38;;;;;;;15.70;8.67;;;22.70;99.90;;;;;;5072791;28;20185;-72
2023/09/12 01:27:35;;;;;;;13.63;9.27;;;23.20;99.90;;;;;;5073238;28;20203;-69
2023/09/12 01:30:05;;;;;;;13.90;9.03;;;23.10;99.90;;;;;;5072720;28;20183;-70
2023/09/12 01:32:35;;;;;;;12.53;8.87;;;23.20;99.90;;;;;;5074202;28;20539;-69
2023/09/12 01:35:03;;;;;;;13.63;8.73;;;23.60;99.90;;;;;;5074584;28;20649;-69
2023/09/12 01:37:32;;;;;;;12.93;7.77;;;23.90;99.90;;;;;;5073845;28;20262;-69
2023/09/12 01:40:00;;;;;;;9.80;7.87;;;23.90;99.90;;;;;;5074112;28;20665;-70
2023/09/12 01:42:48;;;;;;;12.27;7.10;;;23.90;99.90;;;;;;5074171;28;20254;-70
2023/09/12 01:45:19;;;;;;;15.27;8.20;;;23.60;99.90;;;;;;5073837;28;20234;-70
2023/09/12 01:47:48;;;;;;;12.57;7.47;;;23.60;99.90;;;;;;5074233;28;20168;-70
2023/09/12 01:50:16;;;;;;;14.17;7.37;;;24.10;99.90;;;;;;5073653;28;20187;-70
2023/09/12 01:52:44;;;;;;;10.57;7.43;;;24.60;99.90;;;;;;5073506;28;20180;-70
2023/09/12 01:55:13;;;;;;;12.10;7.73;;;24.60;99.90;;;;;;5074216;28;20653;-69
2023/09/12 01:57:42;;;;;;;11.60;7.60;;;24.60;99.90;;;;;;5072618;28;20300;-69
2023/09/12 02:00:11;;;;;;;10.43;7.17;;;23.60;99.90;;;;;;5072161;28;20220;-70
2023/09/12 02:02:39;;;;;;;7.67;6.50;;;23.30;99.90;;;;;;5073724;28;20223;-71
2023/09/12 02:05:24;;;;;;;11.30;6.33;;;23.60;99.90;;;;;;5074852;28;20191;-69
2023/09/12 02:07:52;;;;;;;9.60;6.77;;;24.60;99.90;;;;;;5063405;28;20192;-68
2023/09/12 02:10:19;;;;;;;11.87;6.03;;;25.60;94.50;;;;;;5073857;28;20309;-69
2023/09/12 02:12:47;;;;;;;7.97;5.87;;;25.80;88.60;;;;;;5073083;28;20290;-69
2023/09/12 02:15:15;;;;;;;14.27;5.40;;;25.20;90.80;;;;;;5073237;28;20190;-70
2023/09/12 02:17:43;;;;;;;8.20;6.13;;;24.80;90.60;;;;;;5072420;28;20244;-70
2023/09/12 02:20:11;;;;;;;11.30;7.03;;;25.00;90.20;;;;;;5073243;28;20633;-69
2023/09/12 02:22:39;;;;;;;9.03;6.37;;;25.20;85.30;;;;;;5073357;28;20247;-69
2023/09/12 02:25:08;;;;;;;11.57;6.37;;;25.20;84.00;;;;;;5071958;28;20218;-69
2023/09/12 02:27:36;;;;;;;9.17;5.90;;;24.40;85.90;;;;;;5072837;28;20176;-72
2023/09/12 02:30:04;;;;;;;8.00;5.73;;;25.00;77.60;;;;;;5053523;28;20185;-70
2023/09/12 02:32:32;;;;;;;7.83;5.63;;;25.70;72.00;;;;;;5061738;28;20191;-69
2023/09/12 02:34:59;;;;;;;9.10;5.13;;;25.50;73.20;;;;;;5071640;28;20632;-69
2023/09/12 02:37:27;;;;;;;9.80;5.63;;;24.90;70.40;;;;;;5073443;28;20710;-68
2023/09/12 02:39:55;;;;;;;9.10;5.47;;;24.40;70.90;;;;;;5073258;28;20275;-69
2023/09/12 02:42:24;;;;;;;8.57;5.53;;;23.90;77.50;;;;;;5072321;28;20223;-70
2023/09/12 02:44:52;;;;;;;8.47;5.60;;;22.90;77.50;;;;;;5073120;28;20221;-71
2023/09/12 02:47:20;;;;;;;9.30;5.63;;;22.80;86.70;;;;;;5073269;28;20250;-70
2023/09/12 02:49:47;;;;;;;9.93;4.70;;;23.00;82.10;;;;;;5071112;28;20547;-70
2023/09/12 02:52:15;;;;;;;10.70;5.20;;;23.00;86.30;;;;;;5072740;28;20183;-69
2023/09/12 02:54:43;;;;;;;7.70;5.17;;;23.00;90.30;;;;;;5073097;28;20244;-70
2023/09/12 02:57:10;;;;;;;8.00;4.83;;;23.00;88.70;;;;;;5072401;28;20182;-71
2023/09/12 02:59:38;;;;;;;9.13;5.40;;;23.10;84.80;;;;;;5072832;28;20188;-71
2023/09/12 03:02:06;;;;;;;9.47;5.33;;;23.00;82.40;;;;;;5071386;28;20692;-71
2023/09/12 03:04:36;;;;;;;7.27;5.57;;;23.00;84.10;;;;;;5072219;28;20175;-70
2023/09/12 03:07:04;;;;;;;8.53;5.13;;;22.90;80.30;;;;;;5072893;28;20224;-70
2023/09/12 03:09:31;;;;;;;11.43;4.73;;;22.70;78.10;;;;;;5072237;28;20184;-70
2023/09/12 03:12:01;;;;;;;6.40;4.87;;;22.80;76.10;;;;;;5071814;28;20187;-69
2023/09/12 03:14:29;;;;;;;6.27;4.97;;;23.00;71.80;;;;;;5052295;28;20276;-71
2023/09/12 03:16:57;;;;;;;11.43;5.20;;;23.10;84.00;;;;;;5070451;28;20183;-70
2023/09/12 03:19:25;;;;;;;8.27;5.13;;;23.50;91.60;;;;;;5072006;28;20191;-68
2023/09/12 03:21:52;;;;;;;7.10;5.30;;;24.30;74.90;;;;;;5072088;28;20231;-72
2023/09/12 03:24:23;;;;;;;8.37;5.50;;;25.00;79.10;;;;;;5072129;28;20328;-69
2023/09/12 03:26:51;;;;;;;7.67;5.00;;;25.20;70.40;;;;;;5071691;28;20645;-72
2023/09/12 03:29:19;;;;;;;7.47;4.47;;;25.10;67.40;;;;;;5072452;28;20626;-73
2023/09/12 03:31:47;;;;;;;5.37;4.13;;;24.80;71.30;;;;;;5072203;28;20377;-73
2023/09/12 03:34:14;;;;;;;7.50;4.30;;;24.70;73.70;;;;;;5070175;28;20199;-71
2023/09/12 03:36:42;;;;;;;6.40;4.67;;;24.80;71.30;;;;;;5072071;28;20168;-73
2023/09/12 03:39:12;;;;;;;5.93;4.20;;;25.00;74.50;;;;;;5072220;28;20184;-71
2023/09/12 03:41:41;;;;;;;8.20;4.13;;;24.40;63.10;;;;;;5069889;28;20223;-73
2023/09/12 03:44:08;;;;;;;4.63;3.93;;;24.10;68.30;;;;;;5071408;28;20219;-70
2023/09/12 03:46:36;;;;;;;7.37;3.87;;;24.00;60.70;;;;;;5071363;28;20269;-72
2023/09/12 03:49:04;;;;;;;6.70;3.53;;;23.60;61.60;;;;;;5071536;28;20195;-71
2023/09/12 03:51:32;;;;;;;7.70;4.17;;;23.50;67.60;;;;;;5071214;28;20199;-72
2023/09/12 03:53:59;;;;;;;9.37;4.47;;;23.40;71.40;;;;;;5072046;28;20180;-70
2023/09/12 03:56:27;;;;;;;7.93;3.87;;;23.20;62.00;;;;;;5071373;28;20182;-70
2023/09/12 03:58:57;;;;;;;4.97;3.90;;;23.00;70.30;;;;;;5071446;28;20613;-70
2023/09/12 04:01:25;;;;;;;5.17;3.00;;;23.00;65.30;;;;;;5071625;28;20184;-70
2023/09/12 04:03:53;;;;;;;8.43;3.63;;;22.90;64.90;;;;;;5070928;28;20188;-73
2023/09/12 04:06:20;;;;;;;6.17;3.73;;;22.70;65.70;;;;;;5071087;28;20707;-71
2023/09/12 04:08:48;;;;;;;5.27;3.53;;;22.50;67.90;;;;;;5071603;28;20652;-70
2023/09/12 04:11:16;;;;;;;12.10;4.83;;;22.30;72.00;;;;;;5071448;28;20169;-74
2023/09/12 04:13:44;;;;;;;8.23;3.93;;;22.20;75.90;;;;;;5071282;28;20210;-73
2023/09/12 04:16:11;;;;;;;4.90;3.70;;;22.10;72.70;;;;;;5071600;28;20256;-72
2023/09/12 04:18:39;;;;;;;5.13;3.67;;;22.00;69.20;;;;;;5071018;28;20230;-69
2023/09/12 04:21:07;;;;;;;5.17;3.47;;;21.90;69.50;;;;;;5071195;28;20583;-70
2023/09/12 04:23:39;;;;;;;5.77;3.60;;;21.80;69.60;;;;;;5071341;28;20239;-73
2023/09/12 04:26:07;;;;;;;7.93;3.60;;;21.70;69.20;;;;;;5071157;28;20215;-72
2023/09/12 04:28:34;;;;;;;7.03;3.70;;;21.70;72.50;;;;;;5071452;28;20275;-71
2023/09/12 04:31:05;;;;;;;4.43;3.43;;;21.70;73.20;;;;;;5071534;28;20660;-72
2023/09/12 04:33:33;;;;;;;4.33;3.40;;;21.70;73.70;;;;;;5070938;28;20199;-73
2023/09/12 04:36:04;;;;;;;7.50;3.93;;;21.70;74.40;;;;;;5071366;28;20187;-69
2023/09/12 04:38:32;;;;;;;3.80;3.03;;;21.80;83.90;;;;;;5071333;28;20187;-70
2023/09/12 04:41:07;;;;;;;5.03;3.60;;;21.90;85.00;;;;;;5070866;28;20215;-70
2023/09/12 04:43:34;;;;;;;4.70;3.33;;;22.00;86.50;;;;;;5071075;28;20214;-72
2023/09/12 04:46:02;;;;;;;5.50;3.20;;;21.90;86.60;;;;;;5071247;28;20188;-72
2023/09/12 04:48:30;;;;;;;6.03;3.47;;;21.90;78.10;;;;;;5070660;28;20194;-70
2023/09/12 04:50:57;;;;;;;4.10;2.80;;;22.00;81.40;;;;;;5071274;28;20585;-69
2023/09/12 04:53:25;;;;;;;5.30;3.30;;;22.10;89.90;;;;;;5071214;28;20179;-69
2023/09/12 04:55:56;;;;;;;4.57;2.70;;;22.10;90.20;;;;;;5070843;28;20221;-70
2023/09/12 04:58:24;;;;;;;5.30;3.23;;;22.10;86.80;;;;;;5070999;28;20754;-68
2023/09/12 05:00:52;;;;;;;6.50;3.20;;;22.10;85.90;;;;;;5070879;28;20210;-69
2023/09/12 05:03:20;;;;;;;6.83;3.20;;;22.20;87.00;;;;;;5070272;28;20297;-67
2023/09/12 05:05:49;;;;;;;4.37;3.10;;;22.20;85.00;;;;;;5071277;28;20176;-68
2023/09/12 05:08:20;;;;;;;6.20;3.07;;;22.20;81.70;;;;;;5071911;28;20176;-69
2023/09/12 05:10:49;;;;;;;4.40;3.00;;;22.20;81.80;;;;;;5072466;28;20590;-68
2023/09/12 05:13:17;;;;;;;3.50;2.60;;;22.20;83.20;;;;;;5072227;28;20699;-69
2023/09/12 05:15:45;;;;;;;5.57;3.30;;;22.30;81.90;;;;;;5072467;28;20233;-69
2023/09/12 05:18:14;;;;;;;8.73;3.03;;;22.30;82.30;;;;;;5072610;28;20183;-69
2023/09/12 05:20:42;;;;;;;5.97;3.00;;;22.40;76.80;;;;;;5071075;28;20214;-70
2023/09/12 05:23:10;;;;;;;4.47;3.00;;;22.40;78.70;;;;;;5072328;28;20215;-69
2023/09/12 05:25:38;;;;;;;4.43;3.00;;;22.30;78.30;;;;;;5074567;28;20172;-69
2023/09/12 05:28:07;;;;;;;5.83;2.97;;;22.10;79.20;;;;;;5075825;28;20179;-69
2023/09/12 05:30:34;;;;;;;6.27;3.03;;;22.10;82.70;;;;;;5076090;28;20172;-69
2023/09/12 05:33:02;;;;;;;5.90;3.37;;;22.10;82.80;;;;;;5076302;28;20183;-69
2023/09/12 05:35:30;;;;;;;4.43;3.17;;;22.00;87.40;;;;;;5074699;28;20528;-68
2023/09/12 05:37:58;;;;;;;3.93;3.27;;;21.90;85.40;;;;;;5075966;28;20175;-68
2023/09/12 05:40:26;;;;;;;5.47;3.40;;;21.80;86.50;;;;;;5075699;28;20194;-69
2023/09/12 05:42:53;;;;;;;4.63;3.40;;;21.70;81.60;;;;;;5075826;28;20216;-68
2023/09/12 05:45:21;;;;;;;4.70;3.30;;;21.70;80.80;;;;;;5075944;28;20164;-68
2023/09/12 05:47:50;;;;;;;6.03;3.87;;;21.50;88.30;;;;;;5075925;28;20180;-68
2023/09/12 05:50:18;;;;;;;6.17;3.27;;;21.50;85.30;;;;;;5075494;28;20179;-70
2023/09/12 05:52:46;;;;;;;4.27;3.30;;;21.40;83.90;;;;;;5075817;28;20632;-70
2023/09/12 05:55:13;;;;;;;4.97;3.33;;;21.60;84.60;;;;;;5075582;28;20185;-70
2023/09/12 05:57:41;;;;;;;7.40;3.83;;;21.60;83.10;;;;;;5075706;28;20174;-69
2023/09/12 06:00:11;;;;;;;4.07;3.57;;;21.60;84.10;;;;;;5075340;28;20172;-69
2023/09/12 06:02:42;;;;;;;6.90;4.23;;;21.60;84.60;;;;;;5053521;28;20196;-70
2023/09/12 06:05:10;;;;;;;5.80;3.63;;;21.60;85.00;;;;;;5073442;28;20187;-71
2023/09/12 06:07:40;;;;;;;4.60;3.70;;;21.50;88.30;;;;;;5073861;28;20210;-69
2023/09/12 06:10:08;;;;;;;6.37;4.00;;;21.50;86.90;;;;;;5073314;28;20183;-69
2023/09/12 06:12:36;;;;;;;6.53;3.73;;;21.50;84.10;;;;;;5073972;28;20553;-71
2023/09/12 06:15:05;;;;;;;8.10;4.10;;;21.60;85.90;;;;;;5073728;28;20178;-70
2023/09/12 06:17:33;;;;;;;11.03;3.90;;;21.60;82.20;;;;;;5070834;28;20184;-70
2023/09/12 06:20:00;;;;;;;4.27;3.70;;;21.70;84.90;;;;;;5072098;28;20274;-70
2023/09/12 06:22:28;;;;;;;5.33;3.93;;;21.70;88.70;;;;;;5073381;28;20310;-69
2023/09/12 06:24:56;;;;;;;5.63;4.40;;;21.80;85.70;;;;;;5072944;28;20172;-71
2023/09/12 06:27:23;;;;;;;8.67;4.50;;;21.90;85.20;;;;;;5073497;28;20202;-70
2023/09/12 06:29:52;;;;;;;15.07;7.27;;;22.00;82.20;;;;;;5073369;28;20255;-69
2023/09/12 06:32:20;;;;;;;12.40;8.53;;;21.90;96.40;;;;;;5073107;28;20183;-69
2023/09/12 06:34:48;;;;;;;11.97;8.07;;;21.70;99.90;;;;;;5075119;28;20258;-69
2023/09/12 06:37:15;;;;;;;16.47;8.97;;;21.60;99.90;;;;;;5081057;28;20184;-70
2023/09/12 06:39:43;;;;;;;13.67;9.60;;;21.40;99.90;;;;;;5072839;28;20226;-68
2023/09/12 06:42:13;;;;;;;15.13;10.00;;;21.20;99.90;;;;;;5073206;28;20277;-68
2023/09/12 06:44:43;;;;;;;15.07;9.37;;;21.10;99.90;;;;;;5070779;28;20191;-66
2023/09/12 06:47:11;;;;;;;11.63;9.37;;;20.80;99.90;;;;;;5070999;28;20194;-67
2023/09/12 06:49:38;;;;;;;13.63;9.47;;;20.30;99.90;;;;;;5073009;28;20585;-68
2023/09/12 06:52:06;;;;;;;20.60;10.43;;;20.10;99.90;;;;;;5072968;28;20176;-67
2023/09/12 06:54:35;;;;;;;17.73;10.67;;;19.90;99.90;;;;;;5072546;28;20254;-68
2023/09/12 06:57:03;;;;;;;19.77;11.40;;;20.00;99.90;;;;;;5072925;28;20178;-67
2023/09/12 06:59:31;;;;;;;17.30;10.23;;;20.10;99.90;;;;;;5072696;28;20243;-68
2023/09/12 07:01:58;;;;;;;16.93;11.43;;;20.10;99.90;;;;;;5072041;28;20261;-68
2023/09/12 07:04:26;;;;;;;20.90;11.70;;;19.90;99.90;;;;;;5072869;28;20175;-68
2023/09/12 07:06:54;;;;;;;16.17;10.97;;;19.90;99.90;;;;;;5072759;28;20182;-67
2023/09/12 07:09:22;;;;;;;18.03;11.50;;;19.80;99.90;;;;;;5072293;28;20179;-66
2023/09/12 07:11:49;;;;;;;23.23;12.53;;;19.80;99.90;;;;;;5072519;28;20287;-67
2023/09/12 07:14:17;;;;;;;16.13;10.73;;;19.80;99.90;;;;;;5072619;28;20215;-67
2023/09/12 07:16:45;;;;;;;17.47;10.50;;;19.60;99.90;;;;;;5071226;28;20180;-66
2023/09/12 07:19:14;;;;;;;14.90;11.10;;;19.40;99.90;;;;;;5076229;28;20742;-65
2023/09/12 07:21:42;;;;;;;21.17;10.43;;;19.40;99.90;;;;;;5054104;28;20229;-68
2023/09/12 07:24:09;;;;;;;20.70;11.17;;;19.30;99.90;;;;;;5070339;28;20195;-69
2023/09/12 07:26:37;;;;;;;18.70;11.33;;;19.20;99.90;;;;;;5079227;28;20174;-68
2023/09/12 07:29:05;;;;;;;16.33;11.33;;;19.00;99.90;;;;;;5083563;28;20187;-67
2023/09/12 07:31:33;;;;;;;18.07;11.10;;;18.90;99.90;;;;;;5091945;28;20282;-67
2023/09/12 07:34:02;;;;;;;18.63;11.03;;;18.80;99.90;;;;;;5071818;28;20188;-68
2023/09/12 07:36:30;;;;;;;14.80;10.50;;;18.70;99.90;;;;;;5070673;28;20184;-68
2023/09/12 07:38:57;;;;;;;20.97;10.77;;;18.80;99.90;;;;;;5077097;28;20190;-68
2023/09/12 07:41:25;;;;;;;17.80;11.70;;;18.70;99.90;;;;;;5071397;28;20193;-67
2023/09/12 07:43:53;;;;;;;34.33;12.60;;;18.60;99.90;;;;;;5071627;28;20183;-69
2023/09/12 07:46:21;;;;;;;24.00;12.33;;;18.50;99.90;;;;;;5072168;28;20168;-67
2023/09/12 07:48:48;;;;;;;22.33;12.07;;;18.30;99.90;;;;;;5071333;28;20176;-67
2023/09/12 07:51:20;;;;;;;20.67;10.87;;;18.20;99.90;;;;;;5081056;28;20648;-68
2023/09/12 07:53:47;;;;;;;17.63;11.60;;;18.00;99.90;;;;;;5082445;28;20203;-67
2023/09/12 07:56:15;;;;;;;16.80;11.67;;;18.00;99.90;;;;;;5087030;28;20183;-68
2023/09/12 07:58:43;;;;;;;16.77;11.20;;;18.00;99.90;;;;;;5091536;28;20167;-67
2023/09/12 08:01:11;;;;;;;16.57;10.80;;;17.90;99.90;;;;;;5090658;28;20207;-68
2023/09/12 08:03:42;;;;;;;16.30;11.23;;;17.70;99.90;;;;;;5068555;28;20230;-68
2023/09/12 08:06:10;;;;;;;19.97;11.93;;;17.50;99.90;;;;;;5070522;28;20194;-66
2023/09/12 08:08:38;;;;;;;16.53;11.03;;;17.30;99.90;;;;;;5080200;28;20176;-67
2023/09/12 08:11:05;;;;;;;18.80;11.10;;;17.20;99.90;;;;;;5078864;28;20960;-66
2023/09/12 08:13:54;;;;;;;17.13;11.33;;;17.00;99.90;;;;;;5071347;28;20186;-67
2023/09/12 08:16:22;;;;;;;14.73;10.97;;;16.90;99.90;;;;;;5071667;28;20199;-67
2023/09/12 08:18:49;;;;;;;17.70;11.47;;;16.80;99.90;;;;;;5071391;28;20189;-66
2023/09/12 08:21:20;;;;;;;20.13;11.23;;;16.70;99.90;;;;;;5073250;28;20232;-66
2023/09/12 08:23:48;;;;;;;17.13;11.03;;;16.70;99.90;;;;;;5074397;28;20679;-66
2023/09/12 08:26:22;;;;;;;17.23;10.97;;;16.60;99.90;;;;;;5091827;28;20167;-66
2023/09/12 08:28:50;;;;;;;16.90;11.13;;;16.60;99.90;;;;;;5091306;28;20191;-67
2023/09/12 08:31:18;;;;;;;15.90;10.97;;;16.50;99.90;;;;;;5089837;28;20316;-66
2023/09/12 08:33:47;;;;;;;15.10;9.73;;;16.30;99.90;;;;;;5069782;28;20188;-67
2023/09/12 08:36:15;;;;;;;17.43;10.27;;;16.20;99.90;;;;;;5064188;28;20660;-68
2023/09/12 08:38:44;;;;;;;15.70;9.70;;;16.10;99.90;;;;;;5091723;28;20171;-68
2023/09/12 08:41:16;;;;;;;15.60;9.80;;;16.10;99.90;;;;;;5075777;28;20270;-68
2023/09/12 08:43:46;;;;;;;13.57;8.93;;;16.00;99.90;;;;;;5070922;28;20226;-68
2023/09/12 08:46:15;;;;;;;13.30;9.23;;;15.90;99.90;;;;;;5070158;28;20192;-67
2023/09/12 08:48:44;;;;;;;14.33;9.50;;;16.00;99.90;;;;;;5071157;28;20191;-68
2023/09/12 08:51:13;;;;;;;13.20;9.20;;;15.90;99.90;;;;;;5070653;28;20178;-68
2023/09/12 08:53:41;;;;;;;14.40;9.60;;;15.90;99.90;;;;;;5071374;28;20190;-68
2023/09/12 08:56:09;;;;;;;13.07;9.20;;;15.90;99.90;;;;;;5071294;28;20294;-68
2023/09/12 08:58:37;;;;;;;13.10;10.00;;;15.80;99.90;;;;;;5071512;28;20184;-67
2023/09/12 09:01:10;;;;;;;15.90;9.87;;;15.70;99.90;;;;;;5074932;28;20295;-66
2023/09/12 09:03:40;;;;;;;15.93;8.87;;;15.60;99.90;;;;;;5075210;28;20219;-67
2023/09/12 09:06:11;;;;;;;17.67;9.67;;;15.40;99.90;;;;;;5074660;28;20637;-67
2023/09/12 09:08:42;;;;;;;16.30;10.30;;;15.30;99.90;;;;;;5075053;28;20199;-67
2023/09/12 09:11:10;;;;;;;14.10;9.23;;;15.30;99.90;;;;;;5076051;28;20194;-67
2023/09/12 09:13:38;;;;;;;16.67;10.23;;;15.30;99.90;;;;;;5076465;28;20176;-67
2023/09/12 09:16:16;;;;;;;12.07;9.47;;;15.20;99.90;;;;;;5075173;28;20692;-67
2023/09/12 09:19:00;;;;;;;12.30;9.40;;;15.10;99.90;;;;;;5076541;28;20668;-67
2023/09/12 09:21:31;;;;;;;14.33;9.10;;;15.00;99.90;;;;;;5075876;28;20244;-67
2023/09/12 09:24:04;;;;;;;15.97;9.00;;;14.90;99.90;;;;;;5076047;28;20236;-68
2023/09/12 09:26:51;;;;;;;15.63;9.00;;;14.90;99.90;;;;;;5076211;28;20172;-67
2023/09/12 09:29:21;;;;;;;11.90;8.87;;;14.80;99.90;;;;;;5075815;28;20264;-68
2023/09/12 09:31:53;;;;;;;12.83;9.47;;;14.80;99.90;;;;;;5076156;28;20657;-67
2023/09/12 09:34:24;;;;;;;13.33;9.07;;;14.70;99.90;;;;;;5074767;28;20183;-67
2023/09/12 09:36:53;;;;;;;13.50;9.47;;;14.70;99.90;;;;;;5075900;28;20245;-67
2023/09/12 09:39:28;;;;;;;16.23;9.63;;;14.60;99.90;;;;;;5076156;28;20195;-68
2023/09/12 09:41:58;;;;;;;18.47;9.33;;;14.50;99.90;;;;;;5075595;28;20199;-67
2023/09/12 09:44:28;;;;;;;16.60;9.80;;;14.50;99.90;;;;;;5075491;28;20652;-67
2023/09/12 09:47:04;;;;;;;12.07;9.07;;;14.40;99.90;;;;;;5075829;28;20192;-67
2023/09/12 09:49:35;;;;;;;13.73;9.13;;;14.30;99.90;;;;;;5075739;28;20242;-68
2023/09/12 09:52:06;;;;;;;16.07;10.37;;;14.30;99.90;;;;;;5075854;28;20234;-68
2023/09/12 09:54:34;;;;;;;16.03;10.50;;;14.20;99.90;;;;;;5075588;28;20176;-67
2023/09/12 09:57:02;;;;;;;15.73;9.67;;;14.10;99.90;;;;;;5075480;28;20541;-67
2023/09/12 09:59:30;;;;;;;14.83;10.13;;;14.10;99.90;;;;;;5075570;28;20301;-67
2023/09/12 10:02:02;;;;;;;11.63;9.10;;;14.00;99.90;;;;;;5075513;28;20203;-67
2023/09/12 10:04:32;;;;;;;14.70;9.10;;;13.90;99.90;;;;;;5075453;28;20180;-67
2023/09/12 10:07:00;;;;;;;15.00;10.03;;;13.80;99.90;;;;;;5075531;28;20536;-68
2023/09/12 10:09:29;;;;;;;15.20;10.53;;;13.70;99.90;;;;;;5075082;28;20211;-67
2023/09/12 10:11:58;;;;;;;19.27;10.17;;;13.70;99.90;;;;;;5074190;28;20179;-67
2023/09/12 10:14:28;;;;;;;15.17;10.07;;;13.70;99.90;;;;;;5075010;28;20198;-67
2023/09/12 10:17:02;;;;;;;15.93;9.63;;;13.70;99.90;;;;;;5075089;28;20175;-67
2023/09/12 10:19:53;;;;;;;14.90;10.27;;;13.60;99.90;;;;;;5074454;28;20600;-68
2023/09/12 10:22:34;;;;;;;16.77;10.63;;;13.60;99.90;;;;;;5074185;28;20245;-68
2023/09/12 10:25:02;;;;;;;11.67;9.50;;;13.50;99.90;;;;;;5074615;28;20173;-66
2023/09/12 10:27:31;;;;;;;15.00;10.17;;;13.50;99.90;;;;;;5074614;28;20275;-66
2023/09/12 10:30:02;;;;;;;15.30;9.77;;;13.40;99.90;;;;;;5074204;28;20180;-66
2023/09/12 10:32:30;;;;;;;15.37;10.23;;;13.40;99.90;;;;;;5074437;28;20180;-66
2023/09/12 10:35:01;;;;;;;15.23;10.67;;;13.30;99.90;;;;;;5073119;28;20184;-67
2023/09/12 10:37:32;;;;;;;14.47;10.63;;;13.30;99.90;;;;;;5074521;28;20183;-66
2023/09/12 10:40:03;;;;;;;17.47;10.40;;;13.20;99.90;;;;;;5074291;28;20182;-66
2023/09/12 10:42:33;;;;;;;15.87;11.33;;;13.20;99.90;;;;;;5077271;28;20747;-66
2023/09/12 10:45:03;;;;;;;14.30;9.70;;;13.20;99.90;;;;;;5074800;28;20208;-66
2023/09/12 10:47:34;;;;;;;15.07;11.00;;;13.20;99.90;;;;;;5074606;28;20547;-66
2023/09/12 10:50:03;;;;;;;16.43;11.50;;;13.10;99.90;;;;;;5073233;28;20649;-67
2023/09/12 10:52:32;;;;;;;18.27;11.37;;;13.10;99.90;;;;;;5072629;28;20187;-66
2023/09/12 10:54:59;;;;;;;15.93;11.63;;;13.10;99.90;;;;;;5074288;28;20255;-67
2023/09/12 10:57:28;;;;;;;17.07;11.43;;;13.10;99.90;;;;;;5073926;28;20175;-67
2023/09/12 11:00:08;;;;;;;17.40;11.63;;;13.00;99.90;;;;;;5073617;28;20317;-67
2023/09/12 11:02:43;;;;;;;17.43;11.33;;;13.00;99.90;;;;;;5073914;28;20219;-67
2023/09/12 11:05:32;;;;;;;16.50;11.37;;;13.00;99.90;;;;;;5073908;28;20174;-67
2023/09/12 11:08:01;;;;;;;14.63;10.37;;;12.90;99.90;;;;;;5069951;28;20656;-67
2023/09/12 11:10:32;;;;;;;17.77;12.90;;;12.90;99.90;;;;;;5072595;28;20318;-66
2023/09/12 11:13:00;;;;;;;22.93;12.50;;;12.80;99.90;;;;;;5072580;28;20221;-67
2023/09/12 11:15:34;;;;;;;19.00;13.03;;;12.80;99.90;;;;;;5073865;28;20648;-67
2023/09/12 11:18:06;;;;;;;18.10;11.90;;;12.80;99.90;;;;;;5073501;28;20543;-67
2023/09/12 11:20:58;;;;;;;16.10;11.10;;;12.70;99.90;;;;;;5073498;28;20178;-67
2023/09/12 11:23:34;;;;;;;19.47;12.03;;;12.70;99.90;;;;;;5072787;28;20659;-68
2023/09/12 11:26:12;;;;;;;17.60;12.40;;;12.60;99.90;;;;;;5073670;28;20658;-67
2023/09/12 11:28:42;;;;;;;22.57;12.47;;;12.60;99.90;;;;;;5073281;28;20179;-67
2023/09/12 11:31:11;;;;;;;19.00;12.00;;;12.50;99.90;;;;;;5073601;28;20232;-68
2023/09/12 11:33:41;;;;;;;18.20;12.43;;;12.40;99.90;;;;;;5080244;28;20191;-67
2023/09/12 11:36:14;;;;;;;25.57;13.47;;;12.40;99.90;;;;;;5079909;28;20236;-67
2023/09/12 11:38:42;;;;;;;20.93;13.63;;;12.40;99.90;;;;;;5084396;28;20196;-67
2023/09/12 11:41:10;;;;;;;19.97;13.20;;;12.30;99.90;;;;;;5085167;28;20183;-67
2023/09/12 11:43:40;;;;;;;21.67;13.83;;;12.30;99.90;;;;;;5085673;28;20224;-67
2023/09/12 11:46:09;;;;;;;18.43;12.43;;;12.30;99.90;;;;;;5093711;28;20179;-68
2023/09/12 11:48:38;;;;;;;18.50;13.13;;;12.30;99.90;;;;;;5093692;28;20175;-67
2023/09/12 11:51:09;;;;;;;19.40;12.77;;;12.30;99.90;;;;;;5090128;28;20657;-67
2023/09/12 11:53:37;;;;;;;19.80;13.60;;;12.20;99.90;;;;;;5076067;28;20175;-67
2023/09/12 11:56:04;;;;;;;19.00;13.13;;;12.10;99.90;;;;;;5067446;28;20184;-67
2023/09/12 11:58:32;;;;;;;19.17;13.50;;;12.10;99.90;;;;;;5072793;28;20178;-67
2023/09/12 12:01:00;;;;;;;25.77;14.43;;;12.10;99.90;;;;;;5072352;28;20655;-68
2023/09/12 12:03:29;;;;;;;22.17;14.03;;;12.00;99.90;;;;;;5072303;28;20206;-67
2023/09/12 12:05:57;;;;;;;18.87;13.60;;;12.00;99.90;;;;;;5075188;28;20183;-67
2023/09/12 12:08:27;;;;;;;19.00;13.67;;;12.10;99.90;;;;;;5072585;28;20194;-68
2023/09/12 12:10:56;;;;;;;18.70;13.77;;;12.00;99.90;;;;;;5074526;28;20236;-67
2023/09/12 12:13:29;;;;;;;20.10;13.33;;;11.90;99.90;;;;;;5073761;28;20194;-67
2023/09/12 12:15:58;;;;;;;20.83;13.40;;;11.90;99.90;;;;;;5072218;28;20209;-67
2023/09/12 12:18:26;;;;;;;16.77;13.57;;;11.90;99.90;;;;;;5072070;28;20221;-67
2023/09/12 12:20:54;;;;;;;19.73;13.20;;;11.80;99.90;;;;;;5070473;28;20286;-67
2023/09/12 12:23:23;;;;;;;20.70;12.60;;;11.80;99.90;;;;;;5072087;28;20696;-67
2023/09/12 12:25:51;;;;;;;18.13;13.43;;;11.80;99.90;;;;;;5072630;28;20182;-68
2023/09/12 12:28:20;;;;;;;17.57;12.90;;;11.80;99.90;;;;;;5054624;28;20273;-67
2023/09/12 12:30:50;;;;;;;19.93;13.33;;;11.70;99.90;;;;;;5072029;28;20201;-67
2023/09/12 12:33:19;;;;;;;20.83;13.83;;;11.70;99.90;;;;;;5072697;28;20190;-67
2023/09/12 12:35:47;;;;;;;19.00;13.00;;;11.70;99.90;;;;;;5072595;28;20183;-68
2023/09/12 12:38:15;;;;;;;20.73;13.27;;;11.60;99.90;;;;;;5052574;28;20187;-68
2023/09/12 12:40:43;;;;;;;20.57;13.33;;;11.60;99.90;;;;;;5065514;28;20182;-67
2023/09/12 12:43:22;;;;;;;25.77;13.50;;;11.60;99.90;;;;;;5072173;28;20207;-68
2023/09/12 12:45:59;;;;;;;19.77;13.80;;;11.60;99.90;;;;;;5071975;28;20219;-68